Time;durP1;ratioP1;P1;durP2;ratioP2;P2;SDS_P1;SDS_P2;PMS_P1;PMS_P2;Temp;Humidity;BMP_temperature;BMP_pressure;BME280_temperature;BME280_humidity;BME280_pressure;Samples;Min_cycle;Max_cycle;Signal;HPM_P1;HPM_P2
2023/12/10 00:02:03;;;;;;;;;;;;;;;6.94;100.00;99208.22;4904186;29;20358;-96
2023/12/10 00:04:29;;;;;;;;;;;;;;;6.94;100.00;99192.44;4889753;29;20417;-96
2023/12/10 00:06:55;;;;;;;;;;;;;;;6.93;100.00;99199.50;4880969;29;19968;-91
2023/12/10 00:09:21;;;;;;;;;;;;;;;6.91;100.00;99203.25;4904568;29;19965;-91
2023/12/10 00:11:47;;;;;;;;;;;;;;;6.90;100.00;99204.22;4903789;29;19915;-92
2023/12/10 00:14:12;;;;;;;;;;;;;;;6.86;100.00;99216.84;4887371;29;19922;-91
2023/12/10 00:16:38;;;;;;;;;;;;;;;6.86;100.00;99229.13;4885479;29;19922;-96
2023/12/10 00:19:03;;;;;;;;;;;;;;;6.87;100.00;99236.03;4889983;29;20009;-95
2023/12/10 00:21:29;;;;;;;;;;;;;;;6.80;100.00;99238.47;4912134;29;20014;-95
2023/12/10 00:23:55;;;;;;;;;;;;;;;6.75;100.00;99233.66;4888274;29;20093;-96
2023/12/10 00:26:20;;;;;;;;;;;;;;;6.69;100.00;99234.22;4887376;29;19925;-96
2023/12/10 00:28:46;;;;;;;;;;;;;;;6.66;100.00;99237.97;4910428;29;19933;-96
2023/12/10 00:31:12;;;;;;;;;;;;;;;6.63;100.00;99240.91;4876658;29;19923;-95
2023/12/10 00:33:37;;;;;;;;;;;;;;;6.56;100.00;99251.16;4917521;29;19929;-95
2023/12/10 00:36:03;;;;;;;;;;;;;;;6.52;100.00;99247.19;4902451;29;19947;-95
2023/12/10 00:38:29;;;;;;;;;;;;;;;6.49;100.00;99249.28;4889990;29;19943;-95
2023/12/10 00:40:55;;;;;;;;;;;;;;;6.47;100.00;99240.75;4892464;29;19914;-95
2023/12/10 00:43:20;;;;;;;;;;;;;;;6.46;100.00;99237.28;4887277;29;19970;-95
2023/12/10 00:45:46;;;;;;;;;;;;;;;6.45;100.00;99254.00;4890781;29;19922;-94
2023/12/10 00:48:12;;;;;;;;;;;;;;;6.43;100.00;99256.78;4889532;29;19986;-96
2023/12/10 00:50:38;;;;;;;;;;;;;;;6.42;100.00;99264.78;4890310;29;20013;-96
2023/12/10 00:53:04;;;;;;;;;;;;;;;6.45;100.00;99269.75;4887123;29;19922;-96
2023/12/10 00:55:30;;;;;;;;;;;;;;;6.48;100.00;99263.41;4914551;29;20373;-96
2023/12/10 00:57:55;;;;;;;;;;;;;;;6.51;100.00;99258.69;4889807;29;19919;-96
2023/12/10 01:00:22;;;;;;;;;;;;;;;6.56;100.00;99258.25;4889989;29;20366;-96
2023/12/10 01:02:50;;;;;;;;;;;;;;;6.59;100.00;99255.31;4903978;29;19953;-96
2023/12/10 01:05:16;;;;;;;;;;;;;;;6.62;100.00;99262.91;4884265;29;19957;-96
2023/12/10 01:07:42;;;;;;;;;;;;;;;6.65;100.00;99265.22;4920615;29;20316;-96
2023/12/10 01:10:08;;;;;;;;;;;;;;;6.67;100.00;99262.44;4919710;29;19919;-95
2023/12/10 01:12:36;;;;;;;;;;;;;;;6.69;100.00;99265.72;4890043;29;19934;-95
2023/12/10 01:15:05;;;;;;;;;;;;;;;6.70;100.00;99257.72;4905039;29;19915;-95
2023/12/10 01:17:33;;;;;;;;;;;;;;;6.71;100.00;99261.16;4904588;29;19954;-96
2023/12/10 01:19:59;;;;;;;;;;;;;;;6.73;100.00;99253.97;4884603;29;20024;-95
2023/12/10 01:22:25;;;;;;;;;;;;;;;6.75;100.00;99256.47;4904659;29;20367;-96
2023/12/10 01:24:52;;;;;;;;;;;;;;;6.75;100.00;99248.56;4903923;29;19986;-95
2023/12/10 01:27:20;;;;;;;;;;;;;;;6.72;100.00;99249.69;4903874;29;19919;-96
2023/12/10 01:29:45;;;;;;;;;;;;;;;6.66;100.00;99232.72;4889020;29;19921;-95
2023/12/10 01:32:11;;;;;;;;;;;;;;;6.56;100.00;99227.53;4899706;29;19919;-96
2023/12/10 01:34:37;;;;;;;;;;;;;;;6.50;100.00;99219.47;4902378;29;19922;-96
2023/12/10 01:37:03;;;;;;;;;;;;;;;6.46;100.00;99208.41;4904433;29;19921;-91
2023/12/10 01:39:30;;;;;;;;;;;;;;;6.41;100.00;99206.25;4904653;29;19938;-91
2023/12/10 01:41:56;;;;;;;;;;;;;;;6.38;100.00;99201.28;4885200;29;20421;-96
2023/12/10 01:44:22;;;;;;;;;;;;;;;6.37;100.00;99199.63;4916022;29;19919;-96
2023/12/10 01:46:48;;;;;;;;;;;;;;;6.37;100.00;99197.00;4916026;29;19926;-96
2023/12/10 01:49:15;;;;;;;;;;;;;;;6.36;100.00;99197.97;4884435;29;19915;-95
2023/12/10 01:51:42;;;;;;;;;;;;;;;6.36;100.00;99200.59;4918976;29;20270;-91
2023/12/10 01:54:12;;;;;;;;;;;;;;;6.36;100.00;99192.72;4900872;29;20365;-92
2023/12/10 01:56:37;;;;;;;;;;;;;;;6.39;100.00;99196.84;4915325;29;19926;-96
2023/12/10 02:02:50;;;;;;;;;;;;;;;6.42;100.00;99160.63;4930881;29;19971;-96
2023/12/10 02:05:19;;;;;;;;;;;;;;;6.42;100.00;99175.53;4885631;29;20396;-96
2023/12/10 02:07:45;;;;;;;;;;;;;;;6.44;100.00;99189.34;4889479;29;19918;-96
2023/12/10 02:10:11;;;;;;;;;;;;;;;6.42;100.00;99189.50;4891088;29;19919;-96
2023/12/10 02:12:37;;;;;;;;;;;;;;;6.41;100.00;99177.38;4918536;29;19921;-96
2023/12/10 02:15:16;;;;;;;;;;;;;;;6.41;100.00;99180.00;4884674;29;19914;-96
2023/12/10 02:17:42;;;;;;;;;;;;;;;6.40;100.00;99178.31;4916029;29;19914;-93
2023/12/10 02:20:17;;;;;;;;;;;;;;;6.40;100.00;99165.19;4898285;29;19961;-95
2023/12/10 02:22:51;;;;;;;;;;;;;;;6.42;100.00;99165.03;4912439;29;19915;-95
2023/12/10 02:25:19;;;;;;;;;;;;;;;6.42;100.00;99149.28;4899232;29;19954;-94
2023/12/10 02:27:45;;;;;;;;;;;;;;;6.47;100.00;99138.38;4889527;29;19919;-96
2023/12/10 02:30:11;;;;;;;;;;;;;;;6.48;100.00;99134.78;4884929;29;19915;-96
2023/12/10 02:32:36;;;;;;;;;;;;;;;6.50;100.00;99128.38;4901674;29;19967;-96
2023/12/10 02:35:02;;;;;;;;;;;;;;;6.54;100.00;99132.38;4903153;29;20384;-96
2023/12/10 02:37:28;;;;;;;;;;;;;;;6.56;100.00;99119.09;4888182;29;19919;-96
2023/12/10 02:39:54;;;;;;;;;;;;;;;6.56;100.00;99130.41;4903477;29;20459;-95
2023/12/10 02:42:19;;;;;;;;;;;;;;;6.55;100.00;99115.63;4882765;29;19915;-94
2023/12/10 02:44:45;;;;;;;;;;;;;;;6.55;100.00;99110.38;4907260;29;19925;-96
2023/12/10 02:47:13;;;;;;;;;;;;;;;6.55;100.00;99089.38;4890470;29;19926;-95
2023/12/10 02:49:39;;;;;;;;;;;;;;;6.55;100.00;99076.25;4901469;29;19915;-96
2023/12/10 02:52:05;;;;;;;;;;;;;;;6.57;100.00;99062.97;4887821;29;20278;-96
2023/12/10 02:54:30;;;;;;;;;;;;;;;6.56;100.00;99061.34;4895167;29;20385;-96
2023/12/10 02:56:56;;;;;;;;;;;;;;;6.55;100.00;99070.16;4892991;29;19965;-96
2023/12/10 02:59:22;;;;;;;;;;;;;;;6.55;100.00;99070.16;4884624;29;19919;-95
2023/12/10 03:01:48;;;;;;;;;;;;;;;6.55;100.00;99076.25;4902332;29;20392;-95
2023/12/10 03:04:13;;;;;;;;;;;;;;;6.55;100.00;99076.25;4890917;29;19919;-95
2023/12/10 03:06:39;;;;;;;;;;;;;;;6.56;100.00;99079.72;4885055;29;19947;-94
2023/12/10 03:09:05;;;;;;;;;;;;;;;6.54;100.00;99079.03;4902540;29;19966;-95
2023/12/10 03:11:30;;;;;;;;;;;;;;;6.53;100.00;99082.66;4901499;29;19915;-95
2023/12/10 03:13:56;;;;;;;;;;;;;;;6.55;100.00;99076.25;4900394;29;20250;-96
2023/12/10 03:16:22;;;;;;;;;;;;;;;6.57;100.00;99073.47;4887576;29;19918;-94
2023/12/10 03:18:47;;;;;;;;;;;;;;;6.59;100.00;99066.28;4886799;29;19974;-94
2023/12/10 03:21:13;;;;;;;;;;;;;;;6.63;100.00;99043.97;4880358;29;19915;-95
2023/12/10 03:23:39;;;;;;;;;;;;;;;6.64;100.00;99035.13;4916347;29;19961;-96
2023/12/10 03:26:04;;;;;;;;;;;;;;;6.70;100.00;99005.63;4889571;29;20058;-96
2023/12/10 03:28:30;;;;;;;;;;;;;;;6.72;100.00;98989.72;4890416;29;19914;-96
2023/12/10 03:30:56;;;;;;;;;;;;;;;6.63;100.00;98977.50;4927816;29;19926;-96
2023/12/10 03:33:21;;;;;;;;;;;;;;;6.53;100.00;98952.19;4897827;29;19937;-96
2023/12/10 03:35:47;;;;;;;;;;;;;;;6.38;100.00;98911.75;4905996;29;20330;-95
2023/12/10 03:38:13;;;;;;;;;;;;;;;6.24;100.00;98879.88;4891528;29;19926;-95
2023/12/10 03:40:39;;;;;;;;;;;;;;;6.12;100.00;98873.22;4891876;29;20005;-95
2023/12/10 03:43:04;;;;;;;;;;;;;;;6.11;100.00;98882.91;4904201;29;19922;-96
2023/12/10 03:45:30;;;;;;;;;;;;;;;6.16;100.00;98922.59;4916790;29;19914;-96
2023/12/10 03:47:56;;;;;;;;;;;;;;;6.30;100.00;98944.03;4901634;29;20702;-96
2023/12/10 03:50:22;;;;;;;;;;;;;;;6.37;100.00;98937.16;4923250;29;19915;-96
2023/12/10 03:52:47;;;;;;;;;;;;;;;6.43;100.00;98952.28;4902437;29;20365;-96
2023/12/10 03:55:13;;;;;;;;;;;;;;;6.48;100.00;98916.91;4935198;29;19969;-96
2023/12/10 03:57:39;;;;;;;;;;;;;;;6.48;100.00;98896.72;4885935;29;19922;-96
2023/12/10 04:00:05;;;;;;;;;;;;;;;6.45;100.00;98882.09;4913354;29;20330;-96
2023/12/10 04:02:38;;;;;;;;;;;;;;;6.47;100.00;98883.78;4908242;29;20009;-95
2023/12/10 04:05:04;;;;;;;;;;;;;;;6.46;100.00;98888.19;4903654;29;19919;-95
2023/12/10 04:07:29;;;;;;;;;;;;;;;6.47;100.00;98873.28;4910944;29;19958;-96
2023/12/10 04:09:57;;;;;;;;;;;;;;;6.45;100.00;98868.97;4915934;29;20389;-95
2023/12/10 04:12:22;;;;;;;;;;;;;;;6.47;100.00;98857.53;4904700;29;19919;-96
2023/12/10 04:14:48;;;;;;;;;;;;;;;6.47;100.00;98844.41;4888080;29;20426;-96
2023/12/10 04:17:14;;;;;;;;;;;;;;;6.38;100.00;98799.72;4919784;29;19957;-95
2023/12/10 04:19:41;;;;;;;;;;;;;;;6.44;100.00;98829.75;4887660;29;19921;-96
2023/12/10 04:22:06;;;;;;;;;;;;;;;6.49;100.00;98824.03;4881145;29;19922;-96
2023/12/10 04:24:32;;;;;;;;;;;;;;;6.51;100.00;98829.97;4883403;29;19919;-96
2023/12/10 04:26:58;;;;;;;;;;;;;;;6.55;100.00;98828.66;4886328;29;19951;-96
2023/12/10 04:29:24;;;;;;;;;;;;;;;6.55;100.00;98828.66;4893488;29;20362;-95
2023/12/10 04:31:49;;;;;;;;;;;;;;;6.60;100.00;98836.06;4885502;29;20010;-94
2023/12/10 04:34:15;;;;;;;;;;;;;;;6.63;100.00;98833.13;4887309;29;19921;-95
2023/12/10 04:36:41;;;;;;;;;;;;;;;6.66;100.00;98830.16;4886364;29;20330;-95
2023/12/10 04:39:08;;;;;;;;;;;;;;;6.70;100.00;98819.19;4887704;29;20425;-96
2023/12/10 04:41:34;;;;;;;;;;;;;;;6.76;100.00;98795.91;4916406;29;19958;-96
2023/12/10 04:44:00;;;;;;;;;;;;;;;6.80;100.00;98800.69;4884058;29;19990;-96
2023/12/10 04:46:26;;;;;;;;;;;;;;;6.84;100.00;98795.94;4893570;29;19919;-96
2023/12/10 04:48:52;;;;;;;;;;;;;;;6.88;100.00;98778.84;4915206;29;19971;-96
2023/12/10 04:51:18;;;;;;;;;;;;;;;6.92;100.00;98771.47;4884876;29;19971;-96
2023/12/10 04:53:43;;;;;;;;;;;;;;;6.94;100.00;98753.78;4899303;29;19919;-96
2023/12/10 04:56:09;;;;;;;;;;;;;;;6.97;100.00;98745.56;4899989;29;19915;-95
2023/12/10 04:58:35;;;;;;;;;;;;;;;6.97;100.00;98750.81;4883610;29;19941;-96
2023/12/10 05:01:02;;;;;;;;;;;;;;;6.98;100.00;98755.06;4901989;29;19915;-95
2023/12/10 05:03:28;;;;;;;;;;;;;;;7.00;100.00;98753.13;4887588;29;19935;-96
2023/12/10 05:05:53;;;;;;;;;;;;;;;7.03;100.00;98744.06;4907449;29;19922;-96
2023/12/10 05:08:19;;;;;;;;;;;;;;;7.08;100.00;98728.66;4903085;29;19915;-96
2023/12/10 05:10:45;;;;;;;;;;;;;;;7.12;100.00;98710.75;4905122;29;19953;-94
2023/12/10 05:13:11;;;;;;;;;;;;;;;7.07;100.00;98635.88;4889197;29;19921;-95
2023/12/10 05:15:36;;;;;;;;;;;;;;;7.12;100.00;98622.22;4892829;29;19914;-95
2023/12/10 05:18:05;;;;;;;;;;;;;;;7.22;100.00;98635.19;4889085;29;19914;-96
2023/12/10 05:20:30;;;;;;;;;;;;;;;7.26;100.00;98619.91;4884367;29;19950;-96
2023/12/10 05:23:00;;;;;;;;;;;;;;;7.32;100.00;98622.69;4887220;29;19970;-96
2023/12/10 05:25:29;;;;;;;;;;;;;;;7.35;100.00;98604.94;4902093;29;19921;-96
2023/12/10 05:27:55;;;;;;;;;;;;;;;7.38;100.00;98605.41;4888157;29;19919;-96
2023/12/10 05:30:21;;;;;;;;;;;;;;;7.41;100.00;98628.75;4889460;29;19915;-95
2023/12/10 05:32:47;;;;;;;;;;;;;;;7.49;100.00;98592.88;4904759;29;19946;-95
2023/12/10 05:35:12;;;;;;;;;;;;;;;7.54;100.00;98575.63;4892814;29;19926;-96
2023/12/10 05:37:38;;;;;;;;;;;;;;;7.59;100.00;98583.00;4915074;29;19919;-96
2023/12/10 05:40:04;;;;;;;;;;;;;;;7.60;100.00;98578.56;4901272;29;20360;-96
2023/12/10 05:42:30;;;;;;;;;;;;;;;7.62;100.00;98587.09;4902928;29;20320;-96
2023/12/10 05:44:56;;;;;;;;;;;;;;;7.69;100.00;98585.44;4904368;29;19996;-96
2023/12/10 05:47:22;;;;;;;;;;;;;;;7.74;100.00;98584.91;4888680;29;19919;-95
2023/12/10 05:49:47;;;;;;;;;;;;;;;7.80;100.00;98586.84;4893860;29;19958;-94
2023/12/10 05:52:13;;;;;;;;;;;;;;;7.88;100.00;98573.66;4885772;29;20374;-96
2023/12/10 05:54:39;;;;;;;;;;;;;;;7.94;100.00;98570.34;4881509;29;20381;-95
2023/12/10 05:57:04;;;;;;;;;;;;;;;8.00;100.00;98568.81;4888801;29;19914;-95
2023/12/10 05:59:30;;;;;;;;;;;;;;;8.04;100.00;98569.28;4904011;29;19966;-95
2023/12/10 06:01:56;;;;;;;;;;;;;;;8.05;100.00;98555.97;4885332;29;19966;-94
2023/12/10 06:04:22;;;;;;;;;;;;;;;8.09;100.00;98548.50;4886833;29;19919;-94
2023/12/10 06:06:48;;;;;;;;;;;;;;;8.12;100.00;98537.63;4903534;29;20027;-94
2023/12/10 06:09:14;;;;;;;;;;;;;;;8.14;100.00;98513.78;4888763;29;19915;-93
2023/12/10 06:11:40;;;;;;;;;;;;;;;8.18;100.00;98520.34;4872028;29;19923;-93
2023/12/10 06:14:05;;;;;;;;;;;;;;;8.21;100.00;98520.00;4889846;29;19915;-93
2023/12/10 06:16:31;;;;;;;;;;;;;;;8.22;100.00;98518.97;4911147;29;19953;-96
2023/12/10 06:18:57;;;;;;;;;;;;;;;8.14;100.00;98517.22;4892261;29;19915;-94
2023/12/10 06:21:22;;;;;;;;;;;;;;;8.13;100.00;98522.69;4906442;29;19914;-94
2023/12/10 06:23:48;;;;;;;;;;;;;;;8.21;100.00;98513.91;4904216;29;19915;-94
2023/12/10 06:26:14;;;;;;;;;;;;;;;8.29;100.00;98514.66;4917922;29;19969;-94
2023/12/10 06:28:39;;;;;;;;;;;;;;;8.29;100.00;98514.66;4904244;29;19981;-94
2023/12/10 06:31:05;;;;;;;;;;;;;;;8.31;100.00;98506.59;4888255;29;19914;-94
2023/12/10 06:33:31;;;;;;;;;;;;;;;8.31;100.00;98496.84;4903425;29;19922;-94
2023/12/10 06:35:56;;;;;;;;;;;;;;;8.32;100.00;98485.34;4888810;29;19919;-94
2023/12/10 06:38:22;;;;;;;;;;;;;;;8.29;100.00;98477.81;4902116;29;19915;-94
2023/12/10 06:40:48;;;;;;;;;;;;;;;8.31;100.00;98473.16;4899062;29;20059;-94
2023/12/10 06:43:13;;;;;;;;;;;;;;;8.33;100.00;98480.88;4903240;29;19922;-94
2023/12/10 06:45:39;;;;;;;;;;;;;;;8.32;100.00;98477.47;4901185;29;20262;-94
2023/12/10 06:48:06;;;;;;;;;;;;;;;8.36;100.00;98451.56;4881525;29;19923;-96
2023/12/10 06:50:32;;;;;;;;;;;;;;;8.41;100.00;98432.59;4900315;29;19963;-94
2023/12/10 06:52:58;;;;;;;;;;;;;;;8.42;100.00;98414.03;4900850;29;19923;-96
2023/12/10 06:55:24;;;;;;;;;;;;;;;8.42;100.00;98386.88;4890463;29;20348;-96
2023/12/10 06:57:49;;;;;;;;;;;;;;;8.31;100.00;98377.63;4889338;29;19965;-95
2023/12/10 07:00:17;;;;;;;;;;;;;;;8.28;100.00;98362.97;4888664;29;19915;-92
2023/12/10 07:02:43;;;;;;;;;;;;;;;8.32;100.00;98366.06;4891823;29;19968;-91
2023/12/10 07:05:08;;;;;;;;;;;;;;;8.38;100.00;98391.66;4891941;29;20397;-93
2023/12/10 07:07:34;;;;;;;;;;;;;;;8.46;100.00;98376.81;4907115;29;19922;-93
2023/12/10 07:10:00;;;;;;;;;;;;;;;8.47;100.00;98365.25;4892876;29;19915;-93
2023/12/10 07:12:26;;;;;;;;;;;;;;;8.48;100.00;98365.06;4904125;29;19922;-91
2023/12/10 07:14:51;;;;;;;;;;;;;;;8.48;100.00;98345.81;4914571;29;19915;-90
2023/12/10 07:17:17;;;;;;;;;;;;;;;8.48;100.00;98298.44;4888441;29;20006;-90
2023/12/10 07:19:43;;;;;;;;;;;;;;;8.45;100.00;98286.47;4903084;29;19919;-89
2023/12/10 07:22:08;;;;;;;;;;;;;;;8.46;100.00;98306.50;4891553;29;19986;-93
2023/12/10 07:24:36;;;;;;;;;;;;;;;8.41;100.00;98296.53;4907684;29;19946;-92
2023/12/10 07:27:02;;;;;;;;;;;;;;;8.39;100.00;98281.94;4891707;29;19923;-92
2023/12/10 07:29:28;;;;;;;;;;;;;;;8.40;100.00;98271.22;4891127;29;20425;-92
2023/12/10 07:31:53;;;;;;;;;;;;;;;8.38;100.00;98267.13;4907165;29;19914;-93
2023/12/10 07:34:20;;;;;;;;;;;;;;;8.34;100.00;98242.19;4908839;29;19915;-93
2023/12/10 07:36:46;;;;;;;;;;;;;;;8.25;100.00;98246.75;4892486;29;19922;-92
2023/12/10 07:39:13;;;;;;;;;;;;;;;8.20;100.00;98234.13;4890711;29;19919;-93
2023/12/10 07:41:38;;;;;;;;;;;;;;;8.21;100.00;98229.66;4922433;29;19919;-89
2023/12/10 07:44:04;;;;;;;;;;;;;;;8.26;100.00;98198.34;4932236;29;19962;-89
2023/12/10 07:46:30;;;;;;;;;;;;;;;8.25;100.00;98180.94;4909127;29;20005;-93
2023/12/10 07:48:55;;;;;;;;;;;;;;;8.24;100.00;98164.34;4888379;29;19915;-93
2023/12/10 07:51:21;;;;;;;;;;;;;;;8.25;100.00;98150.16;4917095;29;20439;-94
2023/12/10 07:53:47;;;;;;;;;;;;;;;8.28;100.00;98141.09;4890709;29;20440;-92
2023/12/10 07:56:12;;;;;;;;;;;;;;;8.31;100.00;98143.34;4891178;29;19942;-94
2023/12/10 07:58:38;;;;;;;;;;;;;;;8.31;100.00;98136.25;4901014;29;19915;-93
2023/12/10 08:01:04;;;;;;;;;;;;;;;8.31;100.00;98133.63;4909865;29;19923;-93
2023/12/10 08:03:30;;;;;;;;;;;;;;;8.27;100.00;98131.56;4919973;29;19930;-92
2023/12/10 08:05:56;;;;;;;;;;;;;;;8.25;100.00;98121.22;4906034;29;19914;-93
2023/12/10 08:08:22;;;;;;;;;;;;;;;8.24;100.00;98124.03;4921752;29;20400;-93
2023/12/10 08:10:49;;;;;;;;;;;;;;;8.28;100.00;98126.09;4890141;29;19918;-93
2023/12/10 08:13:15;;;;;;;;;;;;;;;8.30;100.00;98126.75;4889199;29;19950;-94
2023/12/10 08:15:41;;;;;;;;;;;;;;;8.31;100.00;98112.56;4921291;29;19957;-92
2023/12/10 08:18:07;;;;;;;;;;;;;;;8.32;100.00;98102.88;4895253;29;20018;-92
2023/12/10 08:20:34;;;;;;;;;;;;;;;8.36;100.00;98101.47;4890374;29;19915;-93
2023/12/10 08:23:00;;;;;;;;;;;;;;;8.41;100.00;98100.91;4890238;29;19965;-93
2023/12/10 08:25:25;;;;;;;;;;;;;;;8.44;100.00;98101.34;4907949;29;20370;-92
2023/12/10 08:27:51;;;;;;;;;;;;;;;8.49;100.00;98119.22;4887935;29;19925;-92
2023/12/10 08:30:17;;;;;;;;;;;;;;;8.53;100.00;98109.94;4889963;29;19914;-91
2023/12/10 08:32:42;;;;;;;;;;;;;;;8.56;100.00;98109.59;4907156;29;20282;-90
2023/12/10 08:35:08;;;;;;;;;;;;;;;8.60;100.00;98104.75;4922789;29;20330;-92
2023/12/10 08:37:34;;;;;;;;;;;;;;;8.62;100.00;98102.75;4906054;29;19922;-93
2023/12/10 08:40:01;;;;;;;;;;;;;;;8.63;100.00;98107.00;4908767;29;20412;-92
2023/12/10 08:42:27;;;;;;;;;;;;;;;8.64;100.00;98094.66;4904955;29;19915;-92
2023/12/10 08:44:53;;;;;;;;;;;;;;;8.64;100.00;98087.59;4921006;29;20424;-92
2023/12/10 08:47:21;;;;;;;;;;;;;;;8.66;100.00;98074.22;4890336;29;20297;-93
2023/12/10 08:49:46;;;;;;;;;;;;;;;8.69;100.00;98060.69;4888073;29;19919;-92
2023/12/10 08:52:12;;;;;;;;;;;;;;;8.72;100.00;98048.94;4901844;29;19926;-92
2023/12/10 08:54:38;;;;;;;;;;;;;;;8.70;100.00;98067.56;4889737;29;19967;-92
2023/12/10 08:57:03;;;;;;;;;;;;;;;8.72;100.00;98072.63;4891152;29;19918;-93
2023/12/10 08:59:29;;;;;;;;;;;;;;;8.73;100.00;98072.44;4906881;29;20353;-94
2023/12/10 09:01:55;;;;;;;;;;;;;;;8.75;100.00;98069.63;4904783;29;19914;-94
2023/12/10 09:04:20;;;;;;;;;;;;;;;8.75;100.00;98072.25;4890800;29;19922;-92
2023/12/10 09:06:46;;;;;;;;;;;;;;;8.75;100.00;98072.25;4888200;29;19930;-94
2023/12/10 09:09:12;;;;;;;;;;;;;;;8.73;100.00;98076.94;4889961;29;20400;-93
2023/12/10 09:11:37;;;;;;;;;;;;;;;8.68;100.00;98085.38;4893170;29;19957;-95
2023/12/10 09:14:03;;;;;;;;;;;;;;;8.64;100.00;98084.13;4918323;29;19966;-95
2023/12/10 09:16:29;;;;;;;;;;;;;;;8.63;100.00;98090.41;4902027;29;19914;-93
2023/12/10 09:18:54;;;;;;;;;;;;;;;8.64;100.00;98092.03;4888729;29;20483;-93
2023/12/10 09:21:21;;;;;;;;;;;;;;;8.67;100.00;98104.81;4887252;29;19915;-95
2023/12/10 09:23:46;;;;;;;;;;;;;;;8.68;100.00;98098.53;4901019;29;20016;-95
2023/12/10 09:26:12;;;;;;;;;;;;;;;8.71;100.00;98106.09;4886948;29;20321;-96
2023/12/10 09:28:37;;;;;;;;;;;;;;;8.73;100.00;98109.31;4888704;29;19925;-95
2023/12/10 09:31:03;;;;;;;;;;;;;;;8.72;100.00;98112.97;4889354;29;19914;-94
2023/12/10 09:33:30;;;;;;;;;;;;;;;8.72;100.00;98106.88;4919140;29;20325;-96
2023/12/10 09:35:58;;;;;;;;;;;;;;;8.73;100.00;98119.06;4921211;29;20031;-94
2023/12/10 09:38:24;;;;;;;;;;;;;;;8.73;100.00;98119.84;4888703;29;19930;-96
2023/12/10 09:40:50;;;;;;;;;;;;;;;8.73;100.00;98119.84;4904458;29;19914;-95
2023/12/10 09:43:15;;;;;;;;;;;;;;;8.78;100.00;98124.56;4890886;29;19965;-95
2023/12/10 09:45:41;;;;;;;;;;;;;;;8.81;100.00;98126.81;4889179;29;19937;-90
2023/12/10 09:48:07;;;;;;;;;;;;;;;8.84;100.00;98123.00;4903718;29;19919;-92
2023/12/10 09:50:38;;;;;;;;;;;;;;;8.88;100.00;98132.97;4890888;29;20322;-95
2023/12/10 09:53:05;;;;;;;;;;;;;;;8.91;100.00;98129.94;4902617;29;19922;-95
2023/12/10 09:55:30;;;;;;;;;;;;;;;8.90;100.00;98122.22;4891545;29;19915;-94
2023/12/10 09:57:56;;;;;;;;;;;;;;;8.88;100.00;98118.97;4902391;29;19921;-94
2023/12/10 10:00:22;;;;;;;;;;;;;;;8.87;100.00;98117.34;4889320;29;19921;-94
2023/12/10 10:02:47;;;;;;;;;;;;;;;8.89;100.00;98124.03;4894446;29;20001;-94
2023/12/10 10:05:13;;;;;;;;;;;;;;;8.90;100.00;98128.28;4921522;29;19929;-94
2023/12/10 10:07:39;;;;;;;;;;;;;;;8.91;100.00;98137.84;4881335;29;19922;-94
2023/12/10 10:10:07;;;;;;;;;;;;;;;8.94;100.00;98144.53;4895493;29;19921;-93
2023/12/10 10:12:33;;;;;;;;;;;;;;;8.97;100.00;98132.78;4888287;29;19915;-94
2023/12/10 10:14:59;;;;;;;;;;;;;;;9.00;100.00;98142.97;4913231;29;19915;-94
2023/12/10 10:17:29;;;;;;;;;;;;;;;9.03;100.00;98146.03;4889407;29;19914;-92
2023/12/10 10:19:55;;;;;;;;;;;;;;;9.08;100.00;98139.38;4892054;29;19957;-92
2023/12/10 10:22:24;;;;;;;;;;;;;;;9.14;100.00;98151.78;4905980;29;19915;-95
2023/12/10 10:24:53;;;;;;;;;;;;;;;9.19;100.00;98146.75;4902516;29;20001;-94
2023/12/10 10:27:20;;;;;;;;;;;;;;;9.23;100.00;98152.44;4896228;29;19958;-92
2023/12/10 10:29:48;;;;;;;;;;;;;;;9.22;100.00;98146.34;4888761;29;19918;-94
2023/12/10 10:32:31;;;;;;;;;;;;;;;9.24;100.00;98152.25;4893678;29;20357;-96
2023/12/10 10:34:58;;;;;;;;;;;;;;;9.28;100.00;98144.78;4904823;29;19939;-96
2023/12/10 10:37:24;;;;;;;;;;;;;;;9.32;100.00;98142.59;4890071;29;19921;-94
2023/12/10 10:39:50;;;;;;;;;;;;;;;9.37;100.00;98145.44;4917339;29;19942;-95
2023/12/10 10:42:19;;;;;;;;;;;;;;;9.41;100.00;98136.16;4886728;29;20049;-95
2023/12/10 10:44:46;;;;;;;;;;;;;;;9.44;100.00;98130.50;4887153;29;20001;-94
2023/12/10 10:47:12;;;;;;;;;;;;;;;9.49;100.00;98137.81;4901824;29;20377;-95
2023/12/10 10:49:39;;;;;;;;;;;;;;;9.54;100.00;98141.50;4886389;29;19922;-95
2023/12/10 10:52:07;;;;;;;;;;;;;;;9.60;100.00;98147.00;4890295;29;19915;-95
2023/12/10 10:54:33;;;;;;;;;;;;;;;9.63;100.00;98152.72;4930786;29;20005;-96
2023/12/10 10:56:58;;;;;;;;;;;;;;;9.68;100.00;98144.22;4919200;29;20035;-95
2023/12/10 10:59:31;;;;;;;;;;;;;;;9.72;100.00;98131.41;4888243;29;19966;-96
2023/12/10 11:01:58;;;;;;;;;;;;;;;9.75;100.00;98131.03;4889505;29;20003;-95
2023/12/10 11:04:23;;;;;;;;;;;;;;;9.80;100.00;98131.25;4896465;29;19918;-96
2023/12/10 11:06:53;;;;;;;;;;;;;;;9.82;100.00;98131.06;4890389;29;20428;-89
2023/12/10 11:09:19;;;;;;;;;;;;;;;9.83;100.00;98115.03;4901326;29;19946;-88
2023/12/10 11:11:44;;;;;;;;;;;;;;;9.82;100.00;98123.16;4906462;29;19919;-88
2023/12/10 11:14:23;;;;;;;;;;;;;;;9.80;100.00;98126.81;4899227;29;19915;-89
2023/12/10 11:16:59;;;;;;;;;;;;;;;9.86;100.00;98124.41;4904222;29;19975;-94
2023/12/10 11:19:25;;;;;;;;;;;;;;;9.89;100.00;98121.38;4902217;29;19919;-95
2023/12/10 11:21:50;;;;;;;;;;;;;;;9.92;100.00;98120.97;4904380;29;19938;-94
2023/12/10 11:24:17;;;;;;;;;;;;;;;9.98;100.00;98111.44;4901940;29;20357;-95
2023/12/10 11:26:43;;;;;;;;;;;;;;;9.98;100.00;98111.44;4911431;29;19924;-96
2023/12/10 11:29:09;;;;;;;;;;;;;;;9.99;100.00;98111.22;4904201;29;20006;-95
2023/12/10 11:31:35;;;;;;;;;;;;;;;10.04;100.00;98086.88;4888290;29;19997;-95
2023/12/10 11:34:01;;;;;;;;;;;;;;;10.06;100.00;98092.78;4890448;29;19966;-94
2023/12/10 11:36:26;;;;;;;;;;;;;;;10.11;100.00;98095.66;4918878;29;19922;-94
2023/12/10 11:38:54;;;;;;;;;;;;;;;10.11;100.00;98092.19;4896626;29;19915;-96
2023/12/10 11:41:20;;;;;;;;;;;;;;;10.16;100.00;98101.13;4893383;29;19938;-95
2023/12/10 11:43:46;;;;;;;;;;;;;;;10.18;100.00;98093.81;4888278;29;19915;-94
2023/12/10 11:46:22;;;;;;;;;;;;;;;10.22;100.00;98088.16;4903844;29;20321;-91
2023/12/10 11:48:49;;;;;;;;;;;;;;;10.27;100.00;98081.22;4904104;29;19915;-91
2023/12/10 11:51:16;;;;;;;;;;;;;;;10.29;100.00;98073.13;4889380;29;19921;-96
2023/12/10 11:53:42;;;;;;;;;;;;;;;10.34;100.00;98067.22;4890630;29;20285;-95
2023/12/10 11:56:08;;;;;;;;;;;;;;;10.39;100.00;98062.16;4912141;29;19915;-93
2023/12/10 11:58:34;;;;;;;;;;;;;;;10.41;100.00;98068.88;4888663;29;20273;-96
2023/12/10 12:01:00;;;;;;;;;;;;;;;10.39;100.00;98057.69;4884794;29;20005;-95
2023/12/10 12:03:27;;;;;;;;;;;;;;;10.38;100.00;98047.34;4921155;29;19919;-93
2023/12/10 12:05:52;;;;;;;;;;;;;;;10.37;100.00;98041.25;4902997;29;19915;-95
2023/12/10 12:08:19;;;;;;;;;;;;;;;10.38;100.00;98037.56;4889366;29;19930;-94
2023/12/10 12:10:44;;;;;;;;;;;;;;;10.40;100.00;98024.19;4905059;29;19925;-95
2023/12/10 12:13:10;;;;;;;;;;;;;;;10.42;100.00;98016.88;4905550;29;19914;-95
2023/12/10 12:15:36;;;;;;;;;;;;;;;10.45;100.00;98013.03;4892516;29;19914;-96
2023/12/10 12:18:02;;;;;;;;;;;;;;;10.45;100.00;98005.88;4913601;29;19937;-96
2023/12/10 12:20:29;;;;;;;;;;;;;;;10.47;100.00;97993.34;4891399;29;19918;-96
2023/12/10 12:22:55;;;;;;;;;;;;;;;10.47;100.00;97995.16;4912757;29;19918;-95
2023/12/10 12:25:24;;;;;;;;;;;;;;;10.48;100.00;97991.50;4892580;29;19937;-95
2023/12/10 12:27:49;;;;;;;;;;;;;;;10.49;100.00;97993.13;4887661;29;19978;-95
2023/12/10 12:30:16;;;;;;;;;;;;;;;10.53;100.00;97987.22;4906168;29;20431;-95
2023/12/10 12:32:45;;;;;;;;;;;;;;;10.54;100.00;97978.28;4891548;29;19916;-95
2023/12/10 12:35:11;;;;;;;;;;;;;;;10.58;100.00;97975.22;4906896;29;19922;-95
2023/12/10 12:37:37;;;;;;;;;;;;;;;10.56;100.00;97972.00;4889572;29;20317;-95
2023/12/10 12:40:03;;;;;;;;;;;;;;;10.54;100.00;97966.91;4913025;29;19915;-96
2023/12/10 12:42:29;;;;;;;;;;;;;;;10.52;100.00;97963.66;4897122;29;19938;-95
2023/12/10 12:44:54;;;;;;;;;;;;;;;10.44;100.00;97946.19;4890491;29;19914;-94